sensor_id;sensor_type;location;lat;lon;timestamp;pressure;altitude;pressure_sealevel;temperature;humidity
50867;BME280;36839;51.946;21.002;2022-09-01T00:00:45;100603.30;;;11.47;97.44
50867;BME280;36839;51.946;21.002;2022-09-01T00:03:17;100603.30;;;11.47;97.44
50867;BME280;36839;51.946;21.002;2022-09-01T00:05:45;100601.58;;;11.38;97.67
50867;BME280;36839;51.946;21.002;2022-09-01T00:08:13;100594.21;;;11.17;99.11
50867;BME280;36839;51.946;21.002;2022-09-01T00:10:43;100599.95;;;11.08;99.67
50867;BME280;36839;51.946;21.002;2022-09-01T00:13:11;100599.09;;;11.02;99.74
50867;BME280;36839;51.946;21.002;2022-09-01T00:15:38;100598.48;;;10.98;99.79
50867;BME280;36839;51.946;21.002;2022-09-01T00:18:04;100600.39;;;10.92;100.00
50867;BME280;36839;51.946;21.002;2022-09-01T00:20:31;100600.33;;;10.87;100.00
50867;BME280;36839;51.946;21.002;2022-09-01T00:22:58;100595.34;;;10.84;100.00
50867;BME280;36839;51.946;21.002;2022-09-01T00:25:26;100600.30;;;10.82;100.00
50867;BME280;36839;51.946;21.002;2022-09-01T00:27:53;100597.20;;;10.76;100.00
50867;BME280;36839;51.946;21.002;2022-09-01T00:30:20;100597.20;;;10.76;100.00
50867;BME280;36839;51.946;21.002;2022-09-01T00:32:47;100599.60;;;10.67;100.00
50867;BME280;36839;51.946;21.002;2022-09-01T00:35:15;100596.84;;;10.67;100.00
50867;BME280;36839;51.946;21.002;2022-09-01T00:37:42;100596.84;;;10.67;100.00
50867;BME280;36839;51.946;21.002;2022-09-01T00:40:11;100594.28;;;10.61;100.00
50867;BME280;36839;51.946;21.002;2022-09-01T00:42:39;100591.48;;;10.55;100.00
50867;BME280;36839;51.946;21.002;2022-09-01T00:45:08;100593.40;;;10.52;100.00
50867;BME280;36839;51.946;21.002;2022-09-01T00:47:36;100590.88;;;10.51;100.00
50867;BME280;36839;51.946;21.002;2022-09-01T00:50:05;100588.89;;;10.44;100.00
50867;BME280;36839;51.946;21.002;2022-09-01T00:52:44;100588.89;;;10.44;100.00
50867;BME280;36839;51.946;21.002;2022-09-01T00:55:11;100592.09;;;10.33;100.00
50867;BME280;36839;51.946;21.002;2022-09-01T00:57:38;100593.67;;;10.26;100.00
50867;BME280;36839;51.946;21.002;2022-09-01T01:00:21;100593.67;;;10.26;100.00
50867;BME280;36839;51.946;21.002;2022-09-01T01:02:47;100587.36;;;10.09;100.00
50867;BME280;36839;51.946;21.002;2022-09-01T01:05:14;100587.36;;;10.09;100.00
50867;BME280;36839;51.946;21.002;2022-09-01T01:07:43;100596.11;;;10.03;100.00
50867;BME280;36839;51.946;21.002;2022-09-01T01:10:13;100594.95;;;9.97;100.00
50867;BME280;36839;51.946;21.002;2022-09-01T01:12:41;100594.61;;;9.93;100.00
50867;BME280;36839;51.946;21.002;2022-09-01T01:15:11;100589.37;;;9.94;100.00
50867;BME280;36839;51.946;21.002;2022-09-01T01:17:38;100591.09;;;9.98;100.00
50867;BME280;36839;51.946;21.002;2022-09-01T01:20:07;100585.84;;;9.96;100.00
50867;BME280;36839;51.946;21.002;2022-09-01T01:28:11;100589.91;;;9.91;100.00
50867;BME280;36839;51.946;21.002;2022-09-01T01:30:39;100591.00;;;9.90;100.00
50867;BME280;36839;51.946;21.002;2022-09-01T01:33:06;100589.31;;;9.87;100.00
50867;BME280;36839;51.946;21.002;2022-09-01T01:35:32;100594.75;;;9.82;100.00
50867;BME280;36839;51.946;21.002;2022-09-01T01:38:01;100594.75;;;9.82;100.00
50867;BME280;36839;51.946;21.002;2022-09-01T01:40:33;100591.39;;;9.77;100.00
50867;BME280;36839;51.946;21.002;2022-09-01T01:42:59;100593.47;;;9.67;100.00
50867;BME280;36839;51.946;21.002;2022-09-01T01:45:28;100593.37;;;9.40;100.00
50867;BME280;36839;51.946;21.002;2022-09-01T01:47:55;100586.04;;;9.29;100.00
50867;BME280;36839;51.946;21.002;2022-09-01T01:50:28;100586.04;;;9.29;100.00
50867;BME280;36839;51.946;21.002;2022-09-01T01:52:56;100582.47;;;9.12;100.00
50867;BME280;36839;51.946;21.002;2022-09-01T01:55:25;100585.89;;;9.02;100.00
50867;BME280;36839;51.946;21.002;2022-09-01T01:57:53;100585.89;;;9.02;100.00
50867;BME280;36839;51.946;21.002;2022-09-01T02:00:24;100582.18;;;8.94;100.00
50867;BME280;36839;51.946;21.002;2022-09-01T02:02:52;100581.89;;;8.93;100.00
50867;BME280;36839;51.946;21.002;2022-09-01T02:05:22;100581.89;;;8.93;100.00
50867;BME280;36839;51.946;21.002;2022-09-01T02:07:57;100586.56;;;8.93;100.00
50867;BME280;36839;51.946;21.002;2022-09-01T02:10:35;100585.73;;;8.92;100.00
50867;BME280;36839;51.946;21.002;2022-09-01T02:12:59;100584.06;;;8.91;100.00
50867;BME280;36839;51.946;21.002;2022-09-01T02:15:34;100583.45;;;8.89;100.00
50867;BME280;36839;51.946;21.002;2022-09-01T02:18:02;100585.13;;;8.90;100.00
50867;BME280;36839;51.946;21.002;2022-09-01T02:20:29;100583.45;;;8.89;100.00
50867;BME280;36839;51.946;21.002;2022-09-01T02:22:57;100581.80;;;8.88;100.00
50867;BME280;36839;51.946;21.002;2022-09-01T02:25:26;100582.05;;;8.86;100.00
50867;BME280;36839;51.946;21.002;2022-09-01T02:27:52;100582.05;;;8.86;100.00
50867;BME280;36839;51.946;21.002;2022-09-01T02:30:21;100579.26;;;8.84;100.00
50867;BME280;36839;51.946;21.002;2022-09-01T02:32:49;100579.16;;;8.79;100.00
50867;BME280;36839;51.946;21.002;2022-09-01T02:35:16;100583.12;;;8.69;100.00
50867;BME280;36839;51.946;21.002;2022-09-01T02:37:44;100577.77;;;8.62;100.00
50867;BME280;36839;51.946;21.002;2022-09-01T02:40:12;100577.77;;;8.62;100.00
50867;BME280;36839;51.946;21.002;2022-09-01T02:42:40;100585.38;;;8.55;100.00
50867;BME280;36839;51.946;21.002;2022-09-01T02:45:09;100583.31;;;8.48;100.00
50867;BME280;36839;51.946;21.002;2022-09-01T02:47:37;100587.11;;;8.44;100.00
50867;BME280;36839;51.946;21.002;2022-09-01T02:50:06;100587.11;;;8.44;100.00
50867;BME280;36839;51.946;21.002;2022-09-01T02:52:34;100582.87;;;8.39;100.00
50867;BME280;36839;51.946;21.002;2022-09-01T02:55:03;100590.05;;;8.40;100.00
50867;BME280;36839;51.946;21.002;2022-09-01T02:57:30;100583.66;;;8.37;100.00
50867;BME280;36839;51.946;21.002;2022-09-01T02:59:59;100583.66;;;8.37;100.00
50867;BME280;36839;51.946;21.002;2022-09-01T03:02:25;100587.50;;;8.36;100.00
50867;BME280;36839;51.946;21.002;2022-09-01T03:04:54;100588.48;;;8.33;100.00
50867;BME280;36839;51.946;21.002;2022-09-01T03:07:22;100576.16;;;8.21;100.00
50867;BME280;36839;51.946;21.002;2022-09-01T03:09:49;100583.25;;;8.17;100.00
50867;BME280;36839;51.946;21.002;2022-09-01T03:12:17;100578.72;;;8.11;100.00
50867;BME280;36839;51.946;21.002;2022-09-01T03:14:44;100578.72;;;8.11;100.00
50867;BME280;36839;51.946;21.002;2022-09-01T03:17:11;100575.09;;;8.08;100.00
50867;BME280;36839;51.946;21.002;2022-09-01T03:19:38;100582.36;;;7.99;100.00
50867;BME280;36839;51.946;21.002;2022-09-01T03:22:07;100582.36;;;7.99;100.00
50867;BME280;36839;51.946;21.002;2022-09-01T03:24:33;100579.31;;;7.98;100.00
50867;BME280;36839;51.946;21.002;2022-09-01T03:26:59;100585.53;;;7.94;100.00
50867;BME280;36839;51.946;21.002;2022-09-01T03:29:26;100585.53;;;7.94;100.00
50867;BME280;36839;51.946;21.002;2022-09-01T03:31:55;100572.70;;;7.85;100.00
50867;BME280;36839;51.946;21.002;2022-09-01T03:34:20;100577.98;;;7.87;100.00
50867;BME280;36839;51.946;21.002;2022-09-01T03:36:49;100579.83;;;7.84;100.00
50867;BME280;36839;51.946;21.002;2022-09-01T03:39:17;100583.12;;;7.83;100.00
50867;BME280;36839;51.946;21.002;2022-09-01T03:41:44;100583.12;;;7.83;100.00
50867;BME280;36839;51.946;21.002;2022-09-01T03:44:11;100571.95;;;7.76;100.00
50867;BME280;36839;51.946;21.002;2022-09-01T03:46:38;100584.83;;;7.72;100.00
50867;BME280;36839;51.946;21.002;2022-09-01T03:49:05;100580.36;;;7.69;100.00
50867;BME280;36839;51.946;21.002;2022-09-01T03:51:33;100580.36;;;7.69;100.00
50867;BME280;36839;51.946;21.002;2022-09-01T03:54:00;100584.70;;;7.67;100.00
50867;BME280;36839;51.946;21.002;2022-09-01T03:56:29;100583.57;;;7.66;100.00
50867;BME280;36839;51.946;21.002;2022-09-01T03:58:57;100581.07;;;7.64;100.00
50867;BME280;36839;51.946;21.002;2022-09-01T04:01:29;100592.36;;;7.65;100.00
50867;BME280;36839;51.946;21.002;2022-09-01T04:03:53;100592.36;;;7.65;100.00
50867;BME280;36839;51.946;21.002;2022-09-01T04:06:20;100596.06;;;7.71;100.00
50867;BME280;36839;51.946;21.002;2022-09-01T04:08:49;100592.87;;;7.77;100.00
50867;BME280;36839;51.946;21.002;2022-09-01T04:11:18;100592.87;;;7.77;100.00
50867;BME280;36839;51.946;21.002;2022-09-01T04:13:47;100595.41;;;7.78;100.00
50867;BME280;36839;51.946;21.002;2022-09-01T04:16:22;100604.70;;;7.89;100.00
50867;BME280;36839;51.946;21.002;2022-09-01T04:19:08;100599.36;;;7.96;100.00
50867;BME280;36839;51.946;21.002;2022-09-01T04:21:43;100599.36;;;7.96;100.00
50867;BME280;36839;51.946;21.002;2022-09-01T04:24:10;100593.61;;;7.98;100.00
50867;BME280;36839;51.946;21.002;2022-09-01T04:26:38;100593.61;;;7.98;100.00
50867;BME280;36839;51.946;21.002;2022-09-01T04:29:07;100595.23;;;7.96;100.00
50867;BME280;36839;51.946;21.002;2022-09-01T04:31:35;100592.56;;;8.01;100.00
50867;BME280;36839;51.946;21.002;2022-09-01T04:34:04;100594.19;;;8.14;100.00
50867;BME280;36839;51.946;21.002;2022-09-01T04:36:32;100594.19;;;8.14;100.00
50867;BME280;36839;51.946;21.002;2022-09-01T04:39:01;100592.71;;;8.23;100.00
50867;BME280;36839;51.946;21.002;2022-09-01T04:41:31;100591.53;;;8.34;100.00
50867;BME280;36839;51.946;21.002;2022-09-01T04:44:00;100594.50;;;8.58;100.00
50867;BME280;36839;51.946;21.002;2022-09-01T04:46:28;100594.50;;;8.58;100.00
50867;BME280;36839;51.946;21.002;2022-09-01T04:48:57;100598.86;;;8.87;100.00
50867;BME280;36839;51.946;21.002;2022-09-01T04:51:25;100596.84;;;9.00;100.00
50867;BME280;36839;51.946;21.002;2022-09-01T04:53:55;100596.84;;;9.00;100.00
50867;BME280;36839;51.946;21.002;2022-09-01T04:56:23;100598.64;;;9.25;100.00
50867;BME280;36839;51.946;21.002;2022-09-01T04:58:51;100598.64;;;9.25;100.00
50867;BME280;36839;51.946;21.002;2022-09-01T05:01:23;100595.17;;;9.52;100.00
50867;BME280;36839;51.946;21.002;2022-09-01T05:03:50;100598.91;;;9.62;100.00
50867;BME280;36839;51.946;21.002;2022-09-01T05:06:19;100598.91;;;9.62;100.00
50867;BME280;36839;51.946;21.002;2022-09-01T05:08:46;100594.75;;;9.82;100.00
50867;BME280;36839;51.946;21.002;2022-09-01T05:11:13;100594.75;;;9.82;100.00
50867;BME280;36839;51.946;21.002;2022-09-01T05:13:42;100601.61;;;10.01;100.00
50867;BME280;36839;51.946;21.002;2022-09-01T05:16:12;100601.14;;;10.07;100.00
50867;BME280;36839;51.946;21.002;2022-09-01T05:18:41;100601.14;;;10.07;100.00
50867;BME280;36839;51.946;21.002;2022-09-01T05:21:09;100602.94;;;10.20;100.00
50867;BME280;36839;51.946;21.002;2022-09-01T05:23:37;100595.50;;;10.21;100.00
50867;BME280;36839;51.946;21.002;2022-09-01T05:26:10;100597.06;;;10.34;100.00
50867;BME280;36839;51.946;21.002;2022-09-01T05:28:35;100596.58;;;10.42;100.00
50867;BME280;36839;51.946;21.002;2022-09-01T05:31:02;100596.58;;;10.42;100.00
50867;BME280;36839;51.946;21.002;2022-09-01T05:33:29;100595.42;;;10.62;100.00
50867;BME280;36839;51.946;21.002;2022-09-01T05:35:57;100595.42;;;10.62;100.00
50867;BME280;36839;51.946;21.002;2022-09-01T05:38:29;100596.63;;;10.71;100.00
50867;BME280;36839;51.946;21.002;2022-09-01T05:40:59;100595.53;;;10.75;100.00
50867;BME280;36839;51.946;21.002;2022-09-01T05:43:30;100592.94;;;10.95;100.00
50867;BME280;36839;51.946;21.002;2022-09-01T05:45:57;100592.94;;;10.95;100.00
50867;BME280;36839;51.946;21.002;2022-09-01T05:48:26;100587.28;;;11.12;100.00
50867;BME280;36839;51.946;21.002;2022-09-01T05:50:57;100591.48;;;11.20;100.00
50867;BME280;36839;51.946;21.002;2022-09-01T05:53:27;100592.66;;;11.29;100.00
50867;BME280;36839;51.946;21.002;2022-09-01T05:55:55;100590.75;;;11.34;100.00
50867;BME280;36839;51.946;21.002;2022-09-01T05:58:24;100592.23;;;11.47;100.00
50867;BME280;36839;51.946;21.002;2022-09-01T06:00:53;100592.84;;;11.59;100.00
50867;BME280;36839;51.946;21.002;2022-09-01T06:03:22;100592.84;;;11.59;100.00
50867;BME280;36839;51.946;21.002;2022-09-01T06:05:49;100600.66;;;11.72;100.00
50867;BME280;36839;51.946;21.002;2022-09-01T06:08:19;100597.14;;;11.82;100.00
50867;BME280;36839;51.946;21.002;2022-09-01T06:10:46;100593.03;;;11.90;100.00
50867;BME280;36839;51.946;21.002;2022-09-01T06:13:15;100593.03;;;11.90;100.00
50867;BME280;36839;51.946;21.002;2022-09-01T06:15:42;100605.56;;;12.05;100.00
50867;BME280;36839;51.946;21.002;2022-09-01T06:18:10;100605.56;;;12.05;100.00
50867;BME280;36839;51.946;21.002;2022-09-01T06:20:38;100607.84;;;12.26;100.00
50867;BME280;36839;51.946;21.002;2022-09-01T06:23:06;100613.69;;;12.37;100.00
50867;BME280;36839;51.946;21.002;2022-09-01T06:25:37;100613.69;;;12.37;100.00
50867;BME280;36839;51.946;21.002;2022-09-01T06:28:05;100622.05;;;12.60;100.00
50867;BME280;36839;51.946;21.002;2022-09-01T06:30:33;100622.05;;;12.60;100.00
50867;BME280;36839;51.946;21.002;2022-09-01T06:33:02;100609.91;;;12.81;100.00
50867;BME280;36839;51.946;21.002;2022-09-01T06:35:30;100616.56;;;12.93;99.32
50867;BME280;36839;51.946;21.002;2022-09-01T06:37:57;100613.23;;;13.04;98.28
50867;BME280;36839;51.946;21.002;2022-09-01T06:40:24;100622.95;;;13.11;97.39
50867;BME280;36839;51.946;21.002;2022-09-01T06:42:52;100615.74;;;13.18;96.31
50867;BME280;36839;51.946;21.002;2022-09-01T06:45:21;100615.74;;;13.18;96.31
50867;BME280;36839;51.946;21.002;2022-09-01T06:47:48;100617.69;;;13.25;96.41
50867;BME280;36839;51.946;21.002;2022-09-01T06:50:19;100619.34;;;13.34;94.58
50867;BME280;36839;51.946;21.002;2022-09-01T06:52:49;100617.66;;;13.53;93.31
50867;BME280;36839;51.946;21.002;2022-09-01T06:55:18;100623.20;;;13.66;93.62
50867;BME280;36839;51.946;21.002;2022-09-01T06:57:44;100619.00;;;13.73;91.64
50867;BME280;36839;51.946;21.002;2022-09-01T07:00:14;100625.64;;;13.80;91.73
50867;BME280;36839;51.946;21.002;2022-09-01T07:02:51;100615.90;;;13.90;90.59
50867;BME280;36839;51.946;21.002;2022-09-01T07:05:16;100620.56;;;14.08;91.60
50867;BME280;36839;51.946;21.002;2022-09-01T07:07:52;100620.56;;;14.08;91.60
50867;BME280;36839;51.946;21.002;2022-09-01T07:10:25;100624.63;;;14.33;86.57
50867;BME280;36839;51.946;21.002;2022-09-01T07:12:54;100624.63;;;14.33;86.57
50867;BME280;36839;51.946;21.002;2022-09-01T07:15:22;100622.64;;;14.41;84.86
50867;BME280;36839;51.946;21.002;2022-09-01T07:17:51;100621.50;;;14.47;84.37
50867;BME280;36839;51.946;21.002;2022-09-01T07:20:20;100622.28;;;14.61;80.91
50867;BME280;36839;51.946;21.002;2022-09-01T07:22:47;100628.34;;;14.70;82.24
50867;BME280;36839;51.946;21.002;2022-09-01T07:25:14;100625.48;;;14.78;79.91
50867;BME280;36839;51.946;21.002;2022-09-01T07:27:43;100625.48;;;14.78;79.91
50867;BME280;36839;51.946;21.002;2022-09-01T07:30:18;100623.45;;;14.91;78.79
50867;BME280;36839;51.946;21.002;2022-09-01T07:32:46;100627.58;;;14.99;78.78
50867;BME280;36839;51.946;21.002;2022-09-01T07:35:15;100632.45;;;15.17;77.86
50867;BME280;36839;51.946;21.002;2022-09-01T07:37:43;100631.34;;;15.13;76.78
50867;BME280;36839;51.946;21.002;2022-09-01T07:40:12;100631.34;;;15.13;76.78
50867;BME280;36839;51.946;21.002;2022-09-01T07:42:40;100628.00;;;15.13;76.00
50867;BME280;36839;51.946;21.002;2022-09-01T07:45:10;100623.45;;;15.28;78.19
50867;BME280;36839;51.946;21.002;2022-09-01T07:47:36;100624.77;;;15.33;76.88
50867;BME280;36839;51.946;21.002;2022-09-01T07:50:04;100628.59;;;15.42;75.94
50867;BME280;36839;51.946;21.002;2022-09-01T07:52:34;100630.21;;;15.48;74.39
50867;BME280;36839;51.946;21.002;2022-09-01T07:55:03;100628.98;;;15.59;76.10
50867;BME280;36839;51.946;21.002;2022-09-01T07:57:30;100633.34;;;15.73;74.95
50867;BME280;36839;51.946;21.002;2022-09-01T07:59:56;100631.02;;;15.83;73.29
50867;BME280;36839;51.946;21.002;2022-09-01T08:02:23;100633.12;;;15.93;73.38
50867;BME280;36839;51.946;21.002;2022-09-01T08:04:50;100623.89;;;15.95;71.22
50867;BME280;36839;51.946;21.002;2022-09-01T08:07:18;100629.95;;;16.00;71.03
50867;BME280;36839;51.946;21.002;2022-09-01T08:09:45;100628.73;;;16.11;71.35
50867;BME280;36839;51.946;21.002;2022-09-01T08:12:12;100617.55;;;16.14;71.28
50867;BME280;36839;51.946;21.002;2022-09-01T08:14:38;100631.05;;;16.25;70.94
50867;BME280;36839;51.946;21.002;2022-09-01T08:17:05;100631.05;;;16.25;70.94
50867;BME280;36839;51.946;21.002;2022-09-01T08:19:31;100631.48;;;16.35;70.04
50867;BME280;36839;51.946;21.002;2022-09-01T08:21:58;100628.02;;;16.43;69.72
50867;BME280;36839;51.946;21.002;2022-09-01T08:24:24;100626.70;;;16.60;69.69
50867;BME280;36839;51.946;21.002;2022-09-01T08:26:50;100627.62;;;16.74;67.44
50867;BME280;36839;51.946;21.002;2022-09-01T08:29:17;100623.52;;;16.88;68.68
50867;BME280;36839;51.946;21.002;2022-09-01T08:31:45;100625.95;;;16.92;66.23
50867;BME280;36839;51.946;21.002;2022-09-01T08:34:12;100627.40;;;16.89;64.31
50867;BME280;36839;51.946;21.002;2022-09-01T08:36:39;100627.40;;;16.89;64.31
50867;BME280;36839;51.946;21.002;2022-09-01T08:39:05;100625.16;;;17.07;62.40
50867;BME280;36839;51.946;21.002;2022-09-01T08:47:02;100627.81;;;17.64;62.20
50867;BME280;36839;51.946;21.002;2022-09-01T08:49:29;100619.95;;;17.82;62.92
50867;BME280;36839;51.946;21.002;2022-09-01T08:54:56;100623.84;;;18.11;61.60
50867;BME280;36839;51.946;21.002;2022-09-01T08:57:35;100613.72;;;18.40;61.62
50867;BME280;36839;51.946;21.002;2022-09-01T08:59:59;100619.34;;;18.38;58.34
50867;BME280;36839;51.946;21.002;2022-09-01T09:10:58;100616.98;;;17.76;61.80
50867;BME280;36839;51.946;21.002;2022-09-01T09:16:24;100617.24;;;17.77;62.21
50867;BME280;36839;51.946;21.002;2022-09-01T09:19:04;100622.42;;;17.97;62.47
50867;BME280;36839;51.946;21.002;2022-09-01T09:21:40;100622.12;;;18.13;63.53
50867;BME280;36839;51.946;21.002;2022-09-01T09:24:13;100612.75;;;18.06;61.34
50867;BME280;36839;51.946;21.002;2022-09-01T09:26:40;100616.23;;;17.70;60.28
50867;BME280;36839;51.946;21.002;2022-09-01T09:29:06;100612.84;;;17.41;60.55
50867;BME280;36839;51.946;21.002;2022-09-01T09:31:38;100612.84;;;17.41;60.55
50867;BME280;36839;51.946;21.002;2022-09-01T09:34:29;100619.92;;;17.20;61.60
50867;BME280;36839;51.946;21.002;2022-09-01T09:39:43;100620.64;;;16.74;64.59
50867;BME280;36839;51.946;21.002;2022-09-01T09:42:12;100620.17;;;16.69;66.62
50867;BME280;36839;51.946;21.002;2022-09-01T09:44:47;100617.41;;;16.64;67.48
50867;BME280;36839;51.946;21.002;2022-09-01T09:47:39;100614.87;;;16.68;69.41
50867;BME280;36839;51.946;21.002;2022-09-01T09:52:43;100628.24;;;16.47;70.94
50867;BME280;36839;51.946;21.002;2022-09-01T09:55:29;100628.24;;;16.47;70.94
50867;BME280;36839;51.946;21.002;2022-09-01T09:58:01;100627.59;;;16.34;70.92
50867;BME280;36839;51.946;21.002;2022-09-01T10:00:33;100625.69;;;16.29;72.14
50867;BME280;36839;51.946;21.002;2022-09-01T10:03:02;100625.69;;;16.29;72.14
50867;BME280;36839;51.946;21.002;2022-09-01T10:05:41;100633.36;;;16.18;74.38
50867;BME280;36839;51.946;21.002;2022-09-01T10:10:59;100616.28;;;16.04;75.79
50867;BME280;36839;51.946;21.002;2022-09-01T10:13:27;100623.89;;;15.95;74.90
50867;BME280;36839;51.946;21.002;2022-09-01T10:15:57;100620.28;;;15.95;75.60
50867;BME280;36839;51.946;21.002;2022-09-01T10:18:39;100614.50;;;16.10;76.84
50867;BME280;36839;51.946;21.002;2022-09-01T10:21:20;100613.73;;;16.47;76.21
50867;BME280;36839;51.946;21.002;2022-09-01T10:23:44;100611.41;;;16.76;73.07
50867;BME280;36839;51.946;21.002;2022-09-01T10:26:31;100620.21;;;17.02;69.63
50867;BME280;36839;51.946;21.002;2022-09-01T10:28:55;100611.50;;;17.22;70.20
50867;BME280;36839;51.946;21.002;2022-09-01T10:31:22;100602.55;;;17.55;68.54
50867;BME280;36839;51.946;21.002;2022-09-01T10:33:49;100600.39;;;17.82;66.12
50867;BME280;36839;51.946;21.002;2022-09-01T10:36:16;100599.36;;;17.92;61.31
50867;BME280;36839;51.946;21.002;2022-09-01T10:38:44;100599.36;;;17.92;61.31
50867;BME280;36839;51.946;21.002;2022-09-01T10:41:42;100596.36;;;18.41;59.97
50867;BME280;36839;51.946;21.002;2022-09-01T10:43:45;100596.36;;;18.41;59.97
50867;BME280;36839;51.946;21.002;2022-09-01T10:48:51;100578.72;;;19.01;58.22
50867;BME280;36839;51.946;21.002;2022-09-01T10:53:49;100581.91;;;19.08;57.46
50867;BME280;36839;51.946;21.002;2022-09-01T10:56:51;100581.91;;;19.08;57.46
50867;BME280;36839;51.946;21.002;2022-09-01T10:59:08;100587.48;;;19.31;57.56
50867;BME280;36839;51.946;21.002;2022-09-01T11:10:06;100577.16;;;19.40;55.44
50867;BME280;36839;51.946;21.002;2022-09-01T11:14:53;100584.38;;;19.21;54.11
50867;BME280;36839;51.946;21.002;2022-09-01T11:17:29;100580.45;;;19.00;56.56
50867;BME280;36839;51.946;21.002;2022-09-01T11:20:03;100582.03;;;18.81;56.48
50867;BME280;36839;51.946;21.002;2022-09-01T11:22:43;100584.18;;;18.73;56.94
50867;BME280;36839;51.946;21.002;2022-09-01T11:30:46;100585.17;;;18.41;56.62
50867;BME280;36839;51.946;21.002;2022-09-01T11:36:04;100569.69;;;18.82;53.75
50867;BME280;36839;51.946;21.002;2022-09-01T11:38:28;100577.89;;;19.12;51.65
50867;BME280;36839;51.946;21.002;2022-09-01T11:40:56;100576.09;;;19.38;50.38
50867;BME280;36839;51.946;21.002;2022-09-01T11:43:24;100575.89;;;19.57;50.27
50867;BME280;36839;51.946;21.002;2022-09-01T11:48:33;100588.77;;;19.36;51.17
50867;BME280;36839;51.946;21.002;2022-09-01T11:51:03;100582.48;;;19.08;50.56
50867;BME280;36839;51.946;21.002;2022-09-01T11:53:30;100582.48;;;19.08;50.56
50867;BME280;36839;51.946;21.002;2022-09-01T11:56:13;100585.07;;;18.71;51.58
50867;BME280;36839;51.946;21.002;2022-09-01T11:58:39;100584.89;;;18.67;49.34
50867;BME280;36839;51.946;21.002;2022-09-01T12:01:34;100582.27;;;19.04;49.74
50867;BME280;36839;51.946;21.002;2022-09-01T12:04:18;100575.84;;;19.37;45.19
50867;BME280;36839;51.946;21.002;2022-09-01T12:06:56;100575.84;;;19.37;45.19
50867;BME280;36839;51.946;21.002;2022-09-01T12:15:03;100566.68;;;20.05;41.81
50867;BME280;36839;51.946;21.002;2022-09-01T12:17:25;100566.68;;;20.05;41.81
50867;BME280;36839;51.946;21.002;2022-09-01T12:19:53;100560.41;;;20.28;40.87
50867;BME280;36839;51.946;21.002;2022-09-01T12:22:21;100557.34;;;20.36;42.20
50867;BME280;36839;51.946;21.002;2022-09-01T12:24:51;100557.34;;;20.36;42.20
50867;BME280;36839;51.946;21.002;2022-09-01T12:27:19;100568.89;;;20.34;41.88
50867;BME280;36839;51.946;21.002;2022-09-01T12:29:49;100559.03;;;20.17;40.04
50867;BME280;36839;51.946;21.002;2022-09-01T12:32:16;100559.03;;;20.17;40.04
50867;BME280;36839;51.946;21.002;2022-09-01T12:35:03;100558.81;;;20.24;41.03
50867;BME280;36839;51.946;21.002;2022-09-01T12:37:26;100554.52;;;20.27;41.63
50867;BME280;36839;51.946;21.002;2022-09-01T12:39:57;100553.88;;;20.30;40.84
50867;BME280;36839;51.946;21.002;2022-09-01T12:42:28;100545.83;;;20.46;41.70
50867;BME280;36839;51.946;21.002;2022-09-01T12:44:58;100536.94;;;20.61;40.75
50867;BME280;36839;51.946;21.002;2022-09-01T12:52:52;100537.37;;;21.24;40.52
50867;BME280;36839;51.946;21.002;2022-09-01T12:55:26;100543.31;;;20.36;43.51
50867;BME280;36839;51.946;21.002;2022-09-01T12:57:55;100544.00;;;19.76;44.26
50867;BME280;36839;51.946;21.002;2022-09-01T13:00:32;100550.76;;;19.44;45.87
50867;BME280;36839;51.946;21.002;2022-09-01T13:03:06;100546.99;;;19.06;46.62
50867;BME280;36839;51.946;21.002;2022-09-01T13:05:40;100542.27;;;18.81;46.95
50867;BME280;36839;51.946;21.002;2022-09-01T13:08:10;100552.39;;;18.55;48.36
50867;BME280;36839;51.946;21.002;2022-09-01T13:10:39;100543.42;;;18.69;48.47
50867;BME280;36839;51.946;21.002;2022-09-01T13:13:08;100540.61;;;19.03;47.36
50867;BME280;36839;51.946;21.002;2022-09-01T13:15:36;100539.72;;;19.47;45.52
50867;BME280;36839;51.946;21.002;2022-09-01T13:18:03;100531.66;;;19.85;44.41
50867;BME280;36839;51.946;21.002;2022-09-01T13:20:29;100532.68;;;19.98;43.19
50867;BME280;36839;51.946;21.002;2022-09-01T13:22:56;100532.48;;;20.14;39.26
50867;BME280;36839;51.946;21.002;2022-09-01T13:25:23;100532.48;;;20.14;39.26
50867;BME280;36839;51.946;21.002;2022-09-01T13:27:52;100537.86;;;19.65;40.20
50867;BME280;36839;51.946;21.002;2022-09-01T13:30:22;100537.24;;;19.57;41.32
50867;BME280;36839;51.946;21.002;2022-09-01T13:32:49;100533.03;;;20.05;41.10
50867;BME280;36839;51.946;21.002;2022-09-01T13:35:20;100535.81;;;20.34;40.96
50867;BME280;36839;51.946;21.002;2022-09-01T13:37:49;100532.88;;;20.56;39.19
50867;BME280;36839;51.946;21.002;2022-09-01T13:40:20;100528.27;;;20.77;39.24
50867;BME280;36839;51.946;21.002;2022-09-01T13:42:51;100533.75;;;21.15;38.60
50867;BME280;36839;51.946;21.002;2022-09-01T13:45:20;100538.45;;;21.17;38.73
50867;BME280;36839;51.946;21.002;2022-09-01T13:47:50;100538.45;;;21.17;38.73
50867;BME280;36839;51.946;21.002;2022-09-01T13:50:20;100539.71;;;21.13;38.08
50867;BME280;36839;51.946;21.002;2022-09-01T13:52:51;100539.07;;;20.81;38.22
50867;BME280;36839;51.946;21.002;2022-09-01T13:55:20;100534.83;;;20.30;38.86
50867;BME280;36839;51.946;21.002;2022-09-01T13:57:48;100534.80;;;19.84;40.89
50867;BME280;36839;51.946;21.002;2022-09-01T14:00:20;100534.80;;;19.84;40.89